createdAt,value
2018-06-03T00:01:12.803Z,7.27
2018-06-03T00:03:40.248Z,6.77
2018-06-03T00:06:07.720Z,7.47
2018-06-03T00:08:35.214Z,6.40
2018-06-03T00:11:02.687Z,7.40
2018-06-03T00:13:30.911Z,6.23
2018-06-03T00:15:58.408Z,7.10
2018-06-03T00:18:26.676Z,6.93
2018-06-03T00:24:37.547Z,6.70
2018-06-03T00:27:06.009Z,6.53
2018-06-03T00:29:34.397Z,5.53
2018-06-03T00:32:02.819Z,5.73
2018-06-03T00:34:31.215Z,7.67
2018-06-03T00:36:59.552Z,6.83
2018-06-03T00:39:27.945Z,6.90
2018-06-03T00:41:56.330Z,6.57
2018-06-03T00:44:31.407Z,6.07
2018-06-03T00:46:59.983Z,6.50
2018-06-03T00:49:28.331Z,6.90
2018-06-03T00:51:56.745Z,6.90
2018-06-03T00:54:25.143Z,7.00
2018-06-03T00:57:04.835Z,7.93
2018-06-03T00:59:33.378Z,7.27
2018-06-03T01:02:01.941Z,7.50
2018-06-03T01:04:30.369Z,6.50
2018-06-03T01:06:58.697Z,6.97
2018-06-03T01:09:27.140Z,6.30
2018-06-03T01:11:55.538Z,6.10
2018-06-03T01:14:24.064Z,6.60
2018-06-03T01:16:52.400Z,6.10
2018-06-03T01:19:20.927Z,7.37
2018-06-03T01:21:49.268Z,6.50
2018-06-03T01:24:17.716Z,7.63
2018-06-03T01:26:46.062Z,7.40
2018-06-03T01:29:14.510Z,7.97
2018-06-03T01:31:42.891Z,8.40
2018-06-03T01:34:11.278Z,8.00
2018-06-03T01:36:39.692Z,7.43
2018-06-03T01:39:08.066Z,7.60
2018-06-03T01:41:36.363Z,7.53
2018-06-03T01:44:04.831Z,7.20
2018-06-03T01:46:33.167Z,7.33
2018-06-03T01:49:01.555Z,6.90
2018-06-03T01:51:29.926Z,7.57
2018-06-03T01:53:58.351Z,6.07
2018-06-03T01:56:26.716Z,7.07
2018-06-03T01:58:55.090Z,7.40
2018-06-03T02:01:23.414Z,8.40
2018-06-03T02:03:51.919Z,7.37
2018-06-03T02:06:20.311Z,8.53
2018-06-03T02:08:48.810Z,6.80
2018-06-03T02:11:17.149Z,7.33
2018-06-03T02:13:45.544Z,7.63
2018-06-03T02:16:14.056Z,7.30
2018-06-03T02:18:42.406Z,7.83
2018-06-03T02:21:11.084Z,7.90
2018-06-03T02:23:39.425Z,8.03
2018-06-03T02:26:07.793Z,7.73
2018-06-03T02:28:36.158Z,7.83
2018-06-03T02:31:04.605Z,7.53
2018-06-03T02:33:33.003Z,7.83
2018-06-03T02:36:01.482Z,7.73
2018-06-03T02:38:30.020Z,7.57
2018-06-03T02:40:58.457Z,7.40
2018-06-03T02:43:26.970Z,7.23
2018-06-03T02:45:55.400Z,8.30
2018-06-03T02:48:23.727Z,7.03
2018-06-03T02:50:52.079Z,7.47
2018-06-03T02:53:20.424Z,8.10
2018-06-03T02:55:48.509Z,6.93
2018-06-03T02:58:16.864Z,6.90
2018-06-03T03:00:45.264Z,7.60
2018-06-03T03:03:13.697Z,7.90
2018-06-03T03:05:42.034Z,8.33
2018-06-03T03:08:10.422Z,7.87
2018-06-03T03:10:38.759Z,8.37
2018-06-03T03:13:07.119Z,7.63
2018-06-03T03:15:35.443Z,8.67
2018-06-03T03:18:03.798Z,8.17
2018-06-03T03:20:32.179Z,7.37
2018-06-03T03:23:00.557Z,7.40
2018-06-03T03:25:28.890Z,8.20
2018-06-03T03:27:57.270Z,7.70
2018-06-03T03:30:25.662Z,7.60
2018-06-03T03:32:54.183Z,7.57
2018-06-03T03:35:22.529Z,7.30
2018-06-03T03:37:50.925Z,7.20
2018-06-03T03:40:19.353Z,7.97
2018-06-03T03:42:47.728Z,7.33
2018-06-03T03:45:16.151Z,7.40
2018-06-03T03:47:44.477Z,7.80
2018-06-03T03:50:12.934Z,7.70
2018-06-03T03:52:41.318Z,7.40
2018-06-03T03:55:09.654Z,7.17
2018-06-03T03:57:38.077Z,7.40
2018-06-03T04:00:06.527Z,8.03
2018-06-03T04:02:34.917Z,7.83
2018-06-03T04:05:03.277Z,8.27
2018-06-03T04:07:31.614Z,8.53
2018-06-03T04:09:59.996Z,7.90
2018-06-03T04:12:28.318Z,7.73
2018-06-03T04:14:56.874Z,8.00
2018-06-03T04:17:25.219Z,6.80
2018-06-03T04:19:53.610Z,7.90
2018-06-03T04:22:22.054Z,7.90
2018-06-03T04:24:50.435Z,7.67
2018-06-03T04:27:18.899Z,7.30
2018-06-03T04:29:47.250Z,6.80
2018-06-03T04:32:15.623Z,7.50
2018-06-03T04:34:44.023Z,8.70
2018-06-03T04:37:12.470Z,7.23
2018-06-03T04:39:40.886Z,7.23
2018-06-03T04:42:09.239Z,7.93
2018-06-03T04:44:37.614Z,7.87
2018-06-03T04:47:06.220Z,7.27
2018-06-03T04:49:34.605Z,9.23
2018-06-03T04:52:02.976Z,7.80
2018-06-03T04:54:31.330Z,8.17
2018-06-03T04:56:59.816Z,8.10
2018-06-03T04:59:28.190Z,8.33
2018-06-03T05:01:56.542Z,8.20
2018-06-03T05:04:24.950Z,9.20
2018-06-03T05:06:53.282Z,8.50
2018-06-03T05:09:21.694Z,9.50
2018-06-03T05:11:50.064Z,8.20
2018-06-03T05:14:18.406Z,7.87
2018-06-03T05:16:46.839Z,8.87
2018-06-03T05:19:15.201Z,9.00
2018-06-03T05:21:43.585Z,8.53
2018-06-03T05:24:11.990Z,8.27
2018-06-03T05:26:40.505Z,8.70
2018-06-03T05:29:09.092Z,9.37
2018-06-03T05:31:37.546Z,8.87
2018-06-03T05:34:06.250Z,8.70
2018-06-03T05:36:34.663Z,7.67
2018-06-03T05:39:03.289Z,9.40
2018-06-03T05:41:31.795Z,7.90
2018-06-03T05:44:00.218Z,7.67
2018-06-03T05:46:28.599Z,7.97
2018-06-03T05:48:56.961Z,9.27
2018-06-03T05:51:25.415Z,8.10
2018-06-03T05:53:53.774Z,9.57
2018-06-03T05:56:22.267Z,8.00
2018-06-03T05:58:50.653Z,8.30
2018-06-03T06:01:19.127Z,8.30
2018-06-03T06:03:47.494Z,8.10
2018-06-03T06:06:15.863Z,6.60
2018-06-03T06:08:44.253Z,7.63
2018-06-03T06:11:12.602Z,7.37
2018-06-03T06:13:41.081Z,6.23
2018-06-03T06:16:09.495Z,6.60
2018-06-03T06:18:37.889Z,7.40
2018-06-03T06:21:06.281Z,6.97
2018-06-03T06:23:34.677Z,6.60
2018-06-03T06:26:03.080Z,6.50
2018-06-03T06:28:31.471Z,6.00
2018-06-03T06:30:59.943Z,6.97
2018-06-03T06:33:28.344Z,7.20
2018-06-03T06:36:03.206Z,7.70
2018-06-03T06:38:31.606Z,6.40
2018-06-03T06:41:00.109Z,6.70
2018-06-03T06:43:28.688Z,6.20
2018-06-03T06:45:57.078Z,5.60
2018-06-03T06:48:25.438Z,5.40
2018-06-03T06:50:53.940Z,5.20
2018-06-03T06:53:22.342Z,6.97
2018-06-03T06:55:50.703Z,6.67
2018-06-03T06:58:19.097Z,6.13
2018-06-03T07:00:47.478Z,5.20
2018-06-03T07:03:15.898Z,6.27
2018-06-03T07:05:44.324Z,6.03
2018-06-03T07:08:12.693Z,5.70
2018-06-03T07:10:41.141Z,5.37
2018-06-03T07:13:09.578Z,6.00
2018-06-03T07:15:38.000Z,5.97
2018-06-03T07:18:06.492Z,6.17
2018-06-03T07:20:35.020Z,6.13
2018-06-03T07:23:03.466Z,6.20
2018-06-03T07:25:31.947Z,5.13
2018-06-03T07:28:00.339Z,5.20
2018-06-03T07:30:28.811Z,6.33
2018-06-03T07:32:57.180Z,4.80
2018-06-03T07:35:25.576Z,5.37
2018-06-03T07:37:54.085Z,5.90
2018-06-03T07:40:22.537Z,5.40
2018-06-03T07:42:51.017Z,5.47
2018-06-03T07:45:19.429Z,4.20
2018-06-03T07:47:47.860Z,4.70
2018-06-03T07:50:16.229Z,6.47
2018-06-03T07:52:44.570Z,5.60
2018-06-03T07:55:12.959Z,6.13
2018-06-03T07:57:41.490Z,5.27
2018-06-03T08:00:10.054Z,6.30
2018-06-03T08:02:38.562Z,4.90
2018-06-03T08:05:07.022Z,5.07
2018-06-03T08:07:35.605Z,6.40
2018-06-03T08:10:04.090Z,6.87
2018-06-03T08:12:32.508Z,6.00
2018-06-03T08:15:00.939Z,5.60
2018-06-03T08:17:29.309Z,5.93
2018-06-03T08:19:57.697Z,4.73
2018-06-03T08:22:26.269Z,5.90
2018-06-03T08:24:54.675Z,5.20
2018-06-03T08:27:23.237Z,4.60
2018-06-03T08:29:51.718Z,5.63
2018-06-03T08:32:20.210Z,4.97
2018-06-03T08:34:48.691Z,5.40
2018-06-03T08:37:17.165Z,5.43
2018-06-03T08:39:45.495Z,5.13
2018-06-03T08:42:13.573Z,5.70
2018-06-03T08:44:42.166Z,5.20
2018-06-03T08:47:10.519Z,4.90
2018-06-03T08:49:39.013Z,6.63
2018-06-03T08:52:07.554Z,6.10
2018-06-03T08:54:35.932Z,5.27
2018-06-03T08:57:04.501Z,4.53
2018-06-03T08:59:32.934Z,4.40
2018-06-03T09:02:01.368Z,5.03
2018-06-03T09:04:29.810Z,6.00
2018-06-03T09:06:58.328Z,5.63
2018-06-03T09:09:26.874Z,4.53
2018-06-03T09:11:55.461Z,5.23
2018-06-03T09:14:23.862Z,4.30
2018-06-03T09:16:52.371Z,4.50
2018-06-03T09:19:20.753Z,4.40
2018-06-03T09:21:49.523Z,4.90
2018-06-03T09:24:17.964Z,4.30
2018-06-03T09:26:46.531Z,5.30
2018-06-03T09:29:14.948Z,4.33
2018-06-03T09:31:43.447Z,4.63
2018-06-03T09:34:11.845Z,4.47
2018-06-03T09:36:40.485Z,4.00
2018-06-03T09:39:09.321Z,5.17
2018-06-03T09:41:37.962Z,4.00
2018-06-03T09:44:06.420Z,4.70
2018-06-03T09:46:34.811Z,4.87
2018-06-03T09:49:05.064Z,4.80
2018-06-03T09:51:33.564Z,4.40
2018-06-03T09:54:01.752Z,4.80
2018-06-03T09:56:30.183Z,4.90
2018-06-03T09:58:58.565Z,3.93
2018-06-03T10:01:27.379Z,3.73
2018-06-03T10:03:56.038Z,4.67
2018-06-03T10:06:24.627Z,4.43
2018-06-03T10:08:52.999Z,4.00
2018-06-03T10:11:21.695Z,4.03
2018-06-03T10:13:50.232Z,3.50
2018-06-03T10:16:18.804Z,3.43
2018-06-03T10:18:47.294Z,4.53
2018-06-03T10:21:16.002Z,4.70
2018-06-03T10:23:44.469Z,3.63
2018-06-03T10:26:12.953Z,4.50
2018-06-03T10:28:41.532Z,3.40
2018-06-03T10:31:10.219Z,5.20
2018-06-03T10:33:38.864Z,4.20
2018-06-03T10:36:07.913Z,3.90
2018-06-03T10:38:36.349Z,3.80
2018-06-03T10:41:04.864Z,3.40
2018-06-03T10:43:33.308Z,3.40
2018-06-03T10:46:02.188Z,3.55
2018-06-03T10:48:30.672Z,3.60
2018-06-03T10:50:59.122Z,3.10
2018-06-03T10:53:27.543Z,3.72
2018-06-03T10:55:55.978Z,3.40
2018-06-03T10:58:24.443Z,3.40
2018-06-03T11:00:52.851Z,3.10
2018-06-03T11:03:21.366Z,2.90
2018-06-03T11:05:49.770Z,3.42
2018-06-03T11:08:18.269Z,3.45
2018-06-03T11:10:46.868Z,2.90
2018-06-03T11:13:14.922Z,3.25
2018-06-03T11:15:43.352Z,3.00
2018-06-03T11:18:11.868Z,3.10
2018-06-03T11:20:40.478Z,3.10
2018-06-03T11:23:08.878Z,3.10
2018-06-03T11:25:37.239Z,3.35
2018-06-03T11:28:05.627Z,2.83
2018-06-03T11:30:34.111Z,2.90
2018-06-03T11:33:02.550Z,2.92
2018-06-03T11:35:31.043Z,3.27
2018-06-03T11:37:59.603Z,3.10
2018-06-03T11:40:28.202Z,4.65
2018-06-03T11:42:56.775Z,2.83
2018-06-03T11:45:25.238Z,2.90
2018-06-03T11:47:53.681Z,2.90
2018-06-03T11:50:22.144Z,3.12
2018-06-03T11:52:50.597Z,2.62
2018-06-03T11:55:18.995Z,2.87
2018-06-03T11:57:58.696Z,2.80
2018-06-03T12:00:27.138Z,2.33
2018-06-03T12:02:55.671Z,2.70
2018-06-03T12:05:24.209Z,3.00
2018-06-03T12:07:52.774Z,2.90
2018-06-03T12:10:21.306Z,2.77
2018-06-03T12:12:49.914Z,2.70
2018-06-03T12:15:18.347Z,2.70
2018-06-03T12:17:46.810Z,2.60
2018-06-03T12:20:15.272Z,2.83
2018-06-03T12:22:43.759Z,2.60
2018-06-03T12:25:12.219Z,2.50
2018-06-03T12:27:40.668Z,2.83
2018-06-03T12:30:09.110Z,2.70
2018-06-03T12:32:37.631Z,2.62
2018-06-03T12:35:06.151Z,2.70
2018-06-03T12:37:34.599Z,2.87
2018-06-03T12:40:03.191Z,2.30
2018-06-03T12:42:31.871Z,2.60
2018-06-03T12:45:00.628Z,2.40
2018-06-03T12:47:29.227Z,3.20
2018-06-03T12:49:58.166Z,2.87
2018-06-03T12:52:26.708Z,2.70
2018-06-03T12:54:55.122Z,2.70
2018-06-03T12:57:23.562Z,2.80
2018-06-03T12:59:52.104Z,2.60
2018-06-03T13:02:20.614Z,3.10
2018-06-03T13:04:49.100Z,2.35
2018-06-03T13:07:17.895Z,2.62
2018-06-03T13:09:46.682Z,2.80
2018-06-03T13:12:15.178Z,2.60
2018-06-03T13:14:43.803Z,2.92
2018-06-03T13:17:12.381Z,2.50
2018-06-03T13:19:40.889Z,2.40
2018-06-03T13:22:09.270Z,2.70
2018-06-03T13:24:37.840Z,2.40
2018-06-03T13:27:06.520Z,2.43
2018-06-03T13:29:35.235Z,2.58
2018-06-03T13:32:03.656Z,2.30
2018-06-03T13:34:32.224Z,2.40
2018-06-03T13:37:00.625Z,2.60
2018-06-03T13:39:29.131Z,2.52
2018-06-03T13:41:57.504Z,2.50
2018-06-03T13:44:26.292Z,2.60
2018-06-03T13:46:54.560Z,3.08
2018-06-03T13:49:23.095Z,2.60
2018-06-03T13:51:51.644Z,2.90
2018-06-03T13:54:20.093Z,2.50
2018-06-03T13:56:48.794Z,2.50
2018-06-03T13:59:17.335Z,2.50
2018-06-03T14:01:45.843Z,2.50
2018-06-03T14:04:14.530Z,2.12
2018-06-03T14:06:43.122Z,2.70
2018-06-03T14:09:11.821Z,2.40
2018-06-03T14:11:40.547Z,2.40
2018-06-03T14:14:09.103Z,2.60
2018-06-03T14:16:37.608Z,2.20
2018-06-03T14:19:06.158Z,2.17
2018-06-03T14:21:35.165Z,2.30
2018-06-03T14:24:04.170Z,2.55
2018-06-03T14:26:33.033Z,2.40
2018-06-03T14:29:01.517Z,2.20
2018-06-03T14:31:30.237Z,2.10
2018-06-03T14:33:58.727Z,2.05
2018-06-03T14:36:27.707Z,2.10
2018-06-03T14:38:56.655Z,2.20
2018-06-03T14:41:25.026Z,2.40
2018-06-03T14:43:53.441Z,2.30
2018-06-03T14:46:22.525Z,2.02
2018-06-03T14:48:51.080Z,2.30
2018-06-03T14:51:19.516Z,2.42
2018-06-03T14:53:48.174Z,2.50
2018-06-03T14:56:17.314Z,2.33
2018-06-03T14:58:45.950Z,2.17
2018-06-03T15:01:14.601Z,2.40
2018-06-03T15:03:43.275Z,2.02
2018-06-03T15:06:12.260Z,2.40
2018-06-03T15:08:40.708Z,2.67
2018-06-03T15:11:09.614Z,2.40
2018-06-03T15:13:39.185Z,2.27
2018-06-03T15:16:07.968Z,2.58
2018-06-03T15:18:36.657Z,2.10
2018-06-03T15:21:04.983Z,2.40
2018-06-03T15:23:33.462Z,2.67
2018-06-03T15:26:02.182Z,2.52
2018-06-03T15:28:30.850Z,2.40
2018-06-03T15:30:59.492Z,2.40
2018-06-03T15:33:28.738Z,2.10
2018-06-03T15:35:57.623Z,2.00
2018-06-03T15:38:26.063Z,2.10
2018-06-03T15:40:54.520Z,2.10
2018-06-03T15:43:23.259Z,2.33
2018-06-03T15:45:52.133Z,2.62
2018-06-03T15:48:20.858Z,2.20
2018-06-03T15:50:49.688Z,2.60
2018-06-03T15:53:18.548Z,2.30
2018-06-03T15:55:50.150Z,2.50
2018-06-03T15:58:19.200Z,2.52
2018-06-03T16:00:48.558Z,2.30
2018-06-03T16:03:17.442Z,2.50
2018-06-03T16:05:45.844Z,2.50
2018-06-03T16:08:14.030Z,2.60
2018-06-03T16:10:42.922Z,2.60
2018-06-03T16:13:11.774Z,2.40
2018-06-03T16:15:40.279Z,2.52
2018-06-03T16:18:08.799Z,2.52
2018-06-03T16:20:37.756Z,2.60
2018-06-03T16:23:06.218Z,2.58
2018-06-03T16:25:35.161Z,2.90
2018-06-03T16:28:03.887Z,2.80
2018-06-03T16:30:33.078Z,2.80
2018-06-03T16:33:01.577Z,2.72
2018-06-03T16:35:30.559Z,3.10
2018-06-03T16:37:59.099Z,2.80
2018-06-03T16:40:27.689Z,2.70
2018-06-03T16:42:56.776Z,2.70
2018-06-03T16:45:25.660Z,2.80
2018-06-03T16:47:54.119Z,2.60
2018-06-03T16:50:22.649Z,2.80
2018-06-03T16:52:51.306Z,4.12
2018-06-03T16:55:20.026Z,2.90
2018-06-03T16:57:48.643Z,4.10
2018-06-03T17:00:17.254Z,2.50
2018-06-03T17:02:46.149Z,2.90
2018-06-03T17:05:15.171Z,2.65
2018-06-03T17:07:43.911Z,4.00
2018-06-03T17:10:12.490Z,3.13
2018-06-03T17:12:41.168Z,3.90
2018-06-03T17:15:09.839Z,7.50
2018-06-03T17:17:39.031Z,6.70
2018-06-03T17:20:07.883Z,4.03
2018-06-03T17:22:36.473Z,8.77
2018-06-03T17:25:05.619Z,5.20
2018-06-03T17:27:34.106Z,4.33
2018-06-03T17:30:02.589Z,3.13
2018-06-03T17:32:31.523Z,3.97
2018-06-03T17:35:00.346Z,3.50
2018-06-03T17:37:28.792Z,3.00
2018-06-03T17:39:57.332Z,2.87
2018-06-03T17:42:25.955Z,3.33
2018-06-03T17:44:54.361Z,3.00
2018-06-03T17:47:22.854Z,3.40
2018-06-03T17:49:51.333Z,3.37
2018-06-03T17:52:19.835Z,3.10
2018-06-03T17:54:48.284Z,3.07
2018-06-03T17:57:16.886Z,3.03
2018-06-03T17:59:45.513Z,2.50
2018-06-03T18:02:14.131Z,2.23
2018-06-03T18:04:42.645Z,3.13
2018-06-03T18:07:11.110Z,3.10
2018-06-03T18:09:39.650Z,2.63
2018-06-03T18:12:08.155Z,3.20
2018-06-03T18:14:36.567Z,2.90
2018-06-03T18:17:05.346Z,3.10
2018-06-03T18:19:33.961Z,2.80
2018-06-03T18:22:02.486Z,2.57
2018-06-03T18:24:31.106Z,2.83
2018-06-03T18:26:59.549Z,3.03
2018-06-03T18:29:28.032Z,3.50
2018-06-03T18:31:56.718Z,2.90
2018-06-03T18:34:25.300Z,2.87
2018-06-03T18:36:53.807Z,3.00
2018-06-03T18:39:22.287Z,3.40
2018-06-03T18:41:50.781Z,3.40
2018-06-03T18:44:19.490Z,2.93
2018-06-03T18:46:47.973Z,2.97
2018-06-03T18:49:16.360Z,3.00
2018-06-03T18:51:44.934Z,3.33
2018-06-03T18:54:13.446Z,3.20
2018-06-03T18:56:41.911Z,3.00
2018-06-03T18:59:11.234Z,3.20
2018-06-03T19:01:40.737Z,3.00
2018-06-03T19:04:10.239Z,3.27
2018-06-03T19:06:38.838Z,2.93
2018-06-03T19:09:08.181Z,3.70
2018-06-03T19:11:37.153Z,2.60
2018-06-03T19:14:05.658Z,3.43
2018-06-03T19:16:34.307Z,3.73
2018-06-03T19:19:03.292Z,11.97
2018-06-03T19:21:32.089Z,10.93
2018-06-03T19:24:00.614Z,21.40
2018-06-03T19:26:29.127Z,6.80
2018-06-03T19:28:57.847Z,3.20
2018-06-03T19:31:27.266Z,4.00
2018-06-03T19:33:55.889Z,3.03
2018-06-03T19:36:24.367Z,3.67
2018-06-03T19:38:52.774Z,3.50
2018-06-03T19:41:21.292Z,4.03
2018-06-03T19:43:49.670Z,3.80
2018-06-03T19:46:18.157Z,4.60
2018-06-03T19:48:46.804Z,3.03
2018-06-03T19:51:15.268Z,3.70
2018-06-03T19:53:43.848Z,3.47
2018-06-03T19:56:12.294Z,3.57
2018-06-03T19:58:40.809Z,2.90
2018-06-03T20:01:09.360Z,3.80
2018-06-03T20:03:37.850Z,3.40
2018-06-03T20:06:06.320Z,3.73
2018-06-03T20:08:34.857Z,3.50
2018-06-03T20:11:03.340Z,3.40
2018-06-03T20:13:31.903Z,3.47
2018-06-03T20:16:00.446Z,3.50
2018-06-03T20:18:28.939Z,3.23
2018-06-03T20:20:57.521Z,3.50
2018-06-03T20:23:25.975Z,3.60
2018-06-03T20:25:54.406Z,3.33
2018-06-03T20:28:22.831Z,3.47
2018-06-03T20:30:51.510Z,4.20
2018-06-03T20:33:20.341Z,4.10
2018-06-03T20:35:50.612Z,3.60
2018-06-03T20:38:19.006Z,4.80
2018-06-03T20:51:04.508Z,4.40
2018-06-03T20:53:32.930Z,3.83
2018-06-03T21:11:27.171Z,5.13
2018-06-03T21:26:52.760Z,4.40
2018-06-03T21:29:21.118Z,4.03
2018-06-03T21:31:49.541Z,3.90
2018-06-03T21:34:17.962Z,5.00
2018-06-03T21:36:46.515Z,4.00
2018-06-03T21:39:15.200Z,3.63
2018-06-03T21:41:43.706Z,4.80
2018-06-03T21:44:12.230Z,4.70
2018-06-03T21:46:40.703Z,5.20
2018-06-03T21:49:09.145Z,5.60
2018-06-03T21:51:37.762Z,4.90
2018-06-03T21:54:06.251Z,5.03
2018-06-03T21:56:34.799Z,4.80
2018-06-03T21:59:03.187Z,4.07
2018-06-03T22:01:31.740Z,4.23
2018-06-03T22:04:00.177Z,4.70
2018-06-03T22:06:28.799Z,5.13
2018-06-03T22:08:57.298Z,5.50
2018-06-03T22:11:25.703Z,4.70
2018-06-03T22:13:54.060Z,4.57
2018-06-03T22:16:22.518Z,5.30
2018-06-03T22:18:50.897Z,4.97
2018-06-03T22:21:19.314Z,5.80
2018-06-03T22:23:47.666Z,4.47
2018-06-03T22:26:16.170Z,5.47
2018-06-03T22:28:44.521Z,4.47
2018-06-03T22:31:12.986Z,4.83
2018-06-03T22:33:41.506Z,5.20
2018-06-03T22:36:09.959Z,5.13
2018-06-03T22:38:38.649Z,5.23
2018-06-03T22:41:07.162Z,5.17
2018-06-03T22:43:35.663Z,4.87
2018-06-03T22:46:04.177Z,4.90
2018-06-03T22:48:32.563Z,5.33
2018-06-03T22:51:01.050Z,4.90
2018-06-03T22:53:29.643Z,6.00
2018-06-03T22:55:58.110Z,5.17
2018-06-03T22:58:26.580Z,5.27
2018-06-03T23:00:54.988Z,5.60
2018-06-03T23:03:23.353Z,4.93
2018-06-03T23:05:51.851Z,5.17
2018-06-03T23:08:20.306Z,5.07
2018-06-03T23:10:48.808Z,4.70
2018-06-03T23:13:17.389Z,4.87
2018-06-03T23:15:45.899Z,5.77
2018-06-03T23:18:14.320Z,5.60
2018-06-03T23:20:42.948Z,5.33
2018-06-03T23:23:11.313Z,5.17
2018-06-03T23:25:40.103Z,5.30
2018-06-03T23:28:08.491Z,5.60
2018-06-03T23:30:36.899Z,4.80
2018-06-03T23:33:05.289Z,4.87
2018-06-03T23:35:33.752Z,5.50
2018-06-03T23:38:02.134Z,4.90
2018-06-03T23:40:30.641Z,5.00
2018-06-03T23:42:59.039Z,5.10
2018-06-03T23:45:27.507Z,4.87
2018-06-03T23:47:55.892Z,5.13
2018-06-03T23:50:24.309Z,4.33
2018-06-03T23:52:52.644Z,5.67
2018-06-03T23:55:21.002Z,5.47
2018-06-03T23:57:49.397Z,5.30
